Terminal Aerodrome Forecast
Issued by NWS Green Bay, WI

Home | Current Version | Previous Version | Text Only | Print | Product List | Glossary On
Versions: 1 2 3 4 5 6 7 8 9 10 11 12 13 14 15 16 17 18 19 20 21 22 23 24
260
FTUS43 KGRB 260520
TAFGRB
TAF
KGRB 260520Z 2606/2706 VRB03KT P6SM BKN100
      TEMPO 2608/2612 5SM -SHRA BR BKN060
     FM261200 17003KT P6SM VCSH SCT040 OVC080
     FM261500 22008KT P6SM VCSH SCT050 OVC100 PROB30 2615/2620 5SM
      -SHRA BR BKN050
     FM262000 24010KT P6SM VCTS SCT025 OVC050CB
      TEMPO 2620/2624 3SM -TSRA BKN025CB
     FM270100 29011KT P6SM VCSH OVC025=

USA.gov is the U.S. government's official web portal to all federal, state and local government web resources and services.